RRR4216 EGVN-EPWA

Flight info

Callsign RRR4216
Flight time 2h 30m
Altitude 31000
Route ICTAM M197 REDFA L620 SUVOX Z718 OSNAD L980 SAS L986 MAG Z20 SUBIX L980 ADVAB P150 BIMPA
Aircraft A400/H-SDE2E3FGHIJ4J5M1RWXY/LB1D1

Departure

Time 2026-04-07 13:45
Airport RAF Brize Norton (EGVN)

Arrival

Time 2026-04-07 16:15
Airport Warsaw Chopin Airport (EPWA)
Time Latitude Longitude Altitude Speed Heading
2026-04-07 13:35 51.75794 -1.57236 278 ft 0 kts 288°
2026-04-07 13:38 51.75799 -1.57258 279 ft 4 kts 290°
2026-04-07 13:38 51.75827 -1.57300 279 ft 7 kts 347°
2026-04-07 13:39 51.75869 -1.57281 281 ft 6 kts 17°
2026-04-07 13:39 51.75906 -1.57244 280 ft 5 kts 59°
2026-04-07 13:39 51.75903 -1.57177 278 ft 8 kts 108°
2026-04-07 13:39 51.75878 -1.57091 279 ft 9 kts 120°
2026-04-07 13:40 51.75840 -1.57001 276 ft 10 kts 128°
2026-04-07 13:40 51.75779 -1.56922 276 ft 14 kts 151°
2026-04-07 13:40 51.75663 -1.56856 276 ft 20 kts 162°
2026-04-07 13:40 51.75517 -1.56785 279 ft 23 kts 165°
2026-04-07 13:41 51.75360 -1.56711 275 ft 25 kts 162°
2026-04-07 13:41 51.75189 -1.56631 276 ft 26 kts 169°
2026-04-07 13:41 51.75030 -1.56742 277 ft 28 kts 237°
2026-04-07 13:41 51.74917 -1.57034 280 ft 33 kts 238°
2026-04-07 13:42 51.74785 -1.57373 286 ft 37 kts 238°
2026-04-07 13:42 51.74641 -1.57735 290 ft 39 kts 238°
2026-04-07 13:42 51.74544 -1.58139 292 ft 40 kts 288°
2026-04-07 13:42 51.74644 -1.58544 296 ft 36 kts 251°
2026-04-07 13:43 51.74573 -1.58922 300 ft 35 kts 255°
2026-04-07 13:43 51.74506 -1.59293 301 ft 34 kts 254°
2026-04-07 13:43 51.74439 -1.59657 304 ft 36 kts 254°
2026-04-07 13:43 51.74495 -1.60010 309 ft 34 kts 315°
2026-04-07 13:44 51.74679 -1.60065 307 ft 15 kts 57°
2026-04-07 13:44 51.74736 -1.59750 302 ft 64 kts 75°
2026-04-07 13:44 51.74922 -1.58653 300 ft 136 kts 74°
2026-04-07 13:44 51.75248 -1.57017 540 ft 165 kts 72°
2026-04-07 13:45 51.76047 -1.55679 1202 ft 174 kts 36°
2026-04-07 13:45 51.77141 -1.54546 1530 ft 196 kts 40°
2026-04-07 13:45 51.78553 -1.54388 1837 ft 230 kts 338°
2026-04-07 13:45 51.79681 -1.56300 2197 ft 251 kts 287°
2026-04-07 13:46 51.79695 -1.59092 2658 ft 255 kts 243°
2026-04-07 13:46 51.78902 -1.61599 3571 ft 243 kts 234°
2026-04-07 13:46 51.77923 -1.63621 4846 ft 222 kts 218°
2026-04-07 13:46 51.76596 -1.64748 5864 ft 215 kts 188°
2026-04-07 13:47 51.75105 -1.64934 6763 ft 217 kts 184°
2026-04-07 13:47 51.73631 -1.65498 7603 ft 219 kts 204°
2026-04-07 13:47 51.72436 -1.67045 8495 ft 227 kts 231°
2026-04-07 13:47 51.71848 -1.69447 9379 ft 239 kts 260°
2026-04-07 13:48 51.72118 -1.72143 10242 ft 253 kts 289°
2026-04-07 13:48 51.72965 -1.74675 11048 ft 260 kts 297°
2026-04-07 13:48 51.73944 -1.77172 11871 ft 265 kts 298°
2026-04-07 13:48 51.74939 -1.79689 12681 ft 268 kts 297°
2026-04-07 13:49 51.75938 -1.82260 13522 ft 272 kts 296°
2026-04-07 13:49 51.76741 -1.85020 14306 ft 271 kts 279°
2026-04-07 13:49 51.76904 -1.87983 15046 ft 263 kts 257°
2026-04-07 13:49 51.76383 -1.90760 15868 ft 257 kts 241°
2026-04-07 13:50 51.75578 -1.93334 16702 ft 257 kts 238°
2026-04-07 13:50 51.74651 -1.95806 17571 ft 256 kts 230°
2026-04-07 13:50 51.73482 -1.97971 18403 ft 257 kts 219°
2026-04-07 13:50 51.72058 -1.99673 19089 ft 259 kts 208°
2026-04-07 13:51 51.70400 -2.00846 19782 ft 263 kts 197°
2026-04-07 13:51 51.68606 -2.01523 20517 ft 266 kts 189°
2026-04-07 13:51 51.66739 -2.01757 21219 ft 271 kts 181°
2026-04-07 13:51 51.64844 -2.01545 21946 ft 276 kts 173°
2026-04-07 13:52 51.62957 -2.00875 22667 ft 281 kts 165°
2026-04-07 13:52 51.61106 -1.99725 23351 ft 288 kts 157°
2026-04-07 13:52 51.59353 -1.98096 23983 ft 295 kts 148°
2026-04-07 13:52 51.57764 -1.96022 24541 ft 301 kts 139°
2026-04-07 13:53 51.56355 -1.93477 25095 ft 308 kts 130°
2026-04-07 13:53 51.55204 -1.90538 25633 ft 315 kts 120°
2026-04-07 13:53 51.54358 -1.87252 26169 ft 322 kts 111°
2026-04-07 13:53 51.53866 -1.83691 26681 ft 329 kts 101°
2026-04-07 13:54 51.53773 -1.79987 27209 ft 335 kts 88°
2026-04-07 13:54 51.54097 -1.76252 27679 ft 341 kts 78°
2026-04-07 13:54 51.54815 -1.72585 28114 ft 347 kts 71°
2026-04-07 13:54 51.55685 -1.68961 28648 ft 348 kts 70°
2026-04-07 13:55 51.56451 -1.65256 29086 ft 351 kts 78°
2026-04-07 13:55 51.56834 -1.61391 29513 ft 351 kts 89°
2026-04-07 13:55 51.56775 -1.57477 29977 ft 351 kts 98°
2026-04-07 13:55 51.56501 -1.53558 30360 ft 353 kts 101°
2026-04-07 13:56 51.56141 -1.49690 30706 ft 355 kts 102°
2026-04-07 13:56 51.55734 -1.45772 30956 ft 356 kts 102°
2026-04-07 13:56 51.54873 -1.37706 31017 ft 379 kts 102°
2026-04-07 13:57 51.54430 -1.33467 31027 ft 390 kts 101°
2026-04-07 13:57 51.53984 -1.29103 31026 ft 400 kts 101°
2026-04-07 13:57 51.53186 -1.20060 31019 ft 417 kts 94°
2026-04-07 13:58 51.53664 -1.10757 31026 ft 421 kts 79°
2026-04-07 13:58 51.55007 -1.01596 31027 ft 422 kts 76°
2026-04-07 13:59 51.56502 -0.92491 31009 ft 421 kts 75°
2026-04-07 13:59 51.57987 -0.83410 31017 ft 421 kts 76°
2026-04-07 14:00 51.59445 -0.74298 31028 ft 420 kts 76°
2026-04-07 14:00 51.60884 -0.65174 31014 ft 420 kts 76°
2026-04-07 14:01 51.62313 -0.56038 31025 ft 421 kts 76°
2026-04-07 14:01 51.63735 -0.46910 31021 ft 421 kts 76°
2026-04-07 14:02 51.65152 -0.37763 31106 ft 421 kts 76°
2026-04-07 14:02 51.66553 -0.28675 31108 ft 421 kts 76°
2026-04-07 14:03 51.67994 -0.19530 31102 ft 421 kts 75°
2026-04-07 14:03 51.69519 -0.10404 31088 ft 420 kts 76°
2026-04-07 14:04 51.70971 -0.01267 31089 ft 420 kts 77°
2026-04-07 14:04 51.72388 0.07864 31064 ft 419 kts 77°
2026-04-07 14:05 51.73786 0.16933 31070 ft 419 kts 78°
2026-04-07 14:05 51.75190 0.26068 31070 ft 419 kts 78°
2026-04-07 14:06 51.76587 0.35196 31075 ft 419 kts 78°
2026-04-07 14:06 51.77980 0.44350 31070 ft 419 kts 77°
2026-04-07 14:07 51.79364 0.53493 31064 ft 419 kts 79°
2026-04-07 14:07 51.80741 0.62645 31092 ft 419 kts 79°
2026-04-07 14:08 51.82128 0.71755 31092 ft 421 kts 78°
2026-04-07 14:08 51.83548 0.80929 31085 ft 421 kts 78°
2026-04-07 14:09 51.85139 0.90058 31083 ft 422 kts 76°
2026-04-07 14:09 51.86822 0.99142 31077 ft 422 kts 76°
2026-04-07 14:10 51.88222 1.06737 31086 ft 423 kts 76°
2026-04-07 14:10 51.89879 1.15866 31088 ft 423 kts 76°
2026-04-07 14:11 51.91524 1.25027 31090 ft 423 kts 76°
2026-04-07 14:11 51.93157 1.34186 31095 ft 423 kts 76°
2026-04-07 14:12 51.94772 1.43288 31096 ft 423 kts 77°
2026-04-07 14:12 51.96394 1.52465 31102 ft 423 kts 76°
2026-04-07 14:13 51.98007 1.61642 31102 ft 423 kts 76°
2026-04-07 14:13 51.99585 1.70816 31106 ft 422 kts 77°
2026-04-07 14:14 52.01041 1.80060 31113 ft 422 kts 78°
2026-04-07 14:14 52.02447 1.89260 31105 ft 422 kts 78°
2026-04-07 14:15 52.03865 1.98529 31109 ft 423 kts 78°
2026-04-07 14:15 52.05285 2.07808 31112 ft 423 kts 78°
2026-04-07 14:16 52.06698 2.17071 31113 ft 423 kts 78°
2026-04-07 14:16 52.08100 2.26309 31116 ft 423 kts 78°
2026-04-07 14:17 52.09501 2.35602 31120 ft 423 kts 78°
2026-04-07 14:17 52.10893 2.44887 31121 ft 423 kts 78°
2026-04-07 14:18 52.12416 2.54134 31119 ft 423 kts 75°
2026-04-07 14:18 52.14170 2.63269 31124 ft 423 kts 73°
2026-04-07 14:19 52.15950 2.72399 31128 ft 423 kts 74°
2026-04-07 14:19 52.17701 2.81559 31131 ft 423 kts 74°
2026-04-07 14:20 52.19425 2.90721 31131 ft 423 kts 74°
2026-04-07 14:20 52.21131 2.99855 31135 ft 422 kts 74°
2026-04-07 14:21 52.22834 3.09015 31136 ft 422 kts 74°
2026-04-07 14:21 52.24533 3.18197 31151 ft 422 kts 74°
2026-04-07 14:22 52.26226 3.27388 31151 ft 424 kts 74°
2026-04-07 14:22 52.27917 3.36606 31154 ft 424 kts 74°
2026-04-07 14:23 52.29601 3.45831 31154 ft 424 kts 74°
2026-04-07 14:23 52.31280 3.55075 31153 ft 424 kts 74°
2026-04-07 14:24 52.32938 3.64249 31153 ft 424 kts 74°
2026-04-07 14:24 52.34600 3.73495 31153 ft 423 kts 74°
2026-04-07 14:25 52.36180 3.82801 31150 ft 423 kts 80°
2026-04-07 14:25 52.36622 3.92300 31152 ft 421 kts 91°
2026-04-07 14:26 52.36490 4.01894 31148 ft 421 kts 93°
2026-04-07 14:26 52.36241 4.11486 31146 ft 422 kts 94°
2026-04-07 14:27 52.35984 4.21101 31145 ft 422 kts 93°
2026-04-07 14:27 52.35738 4.30681 31145 ft 422 kts 93°
2026-04-07 14:28 52.35495 4.40219 31147 ft 422 kts 93°
2026-04-07 14:28 52.35244 4.49806 31144 ft 422 kts 94°
2026-04-07 14:29 52.34984 4.59400 31148 ft 422 kts 94°
2026-04-07 14:29 52.34712 4.68983 31157 ft 422 kts 94°
2026-04-07 14:30 52.34433 4.78509 31155 ft 422 kts 94°
2026-04-07 14:30 52.34145 4.88102 31157 ft 422 kts 94°
2026-04-07 14:31 52.33849 4.97683 31151 ft 422 kts 93°
2026-04-07 14:31 52.33399 5.07258 31152 ft 421 kts 101°
2026-04-07 14:32 52.31789 5.16384 31150 ft 420 kts 111°
2026-04-07 14:32 52.29727 5.25306 31151 ft 420 kts 112°
2026-04-07 14:33 52.25451 5.42912 31151 ft 420 kts 113°
2026-04-07 14:34 52.23296 5.51825 31153 ft 421 kts 112°
2026-04-07 14:34 52.21142 5.60736 31153 ft 422 kts 112°
2026-04-07 14:35 52.18995 5.69581 31156 ft 422 kts 112°
2026-04-07 14:35 52.16829 5.78470 31154 ft 422 kts 112°
2026-04-07 14:36 52.14658 5.87340 31156 ft 422 kts 112°
2026-04-07 14:36 52.12479 5.96203 31156 ft 422 kts 112°
2026-04-07 14:37 52.10323 6.05077 31151 ft 421 kts 109°
2026-04-07 14:37 52.08960 6.14340 31155 ft 421 kts 101°
2026-04-07 14:38 52.07944 6.23679 31154 ft 422 kts 99°
2026-04-07 14:38 52.06983 6.33094 31149 ft 422 kts 99°
2026-04-07 14:39 52.05514 6.47212 31151 ft 423 kts 99°
2026-04-07 14:40 52.04514 6.56592 31154 ft 423 kts 99°
2026-04-07 14:40 52.03501 6.65993 31153 ft 423 kts 99°
2026-04-07 14:41 52.02474 6.75413 31154 ft 423 kts 100°
2026-04-07 14:41 52.01167 6.84737 31152 ft 423 kts 104°
2026-04-07 14:42 51.99661 6.94006 31156 ft 424 kts 104°
2026-04-07 14:42 51.98175 7.03222 31157 ft 425 kts 101°
2026-04-07 14:43 51.97720 7.12702 31158 ft 421 kts 83°
2026-04-07 14:43 51.99071 7.21861 31160 ft 417 kts 69°
2026-04-07 14:44 52.00850 7.30846 31156 ft 418 kts 69°
2026-04-07 14:44 52.02704 7.39777 31159 ft 418 kts 69°
2026-04-07 14:45 52.04523 7.48741 31155 ft 417 kts 69°
2026-04-07 14:45 52.06308 7.57721 31180 ft 418 kts 69°
2026-04-07 14:46 52.08071 7.66684 31186 ft 419 kts 69°
2026-04-07 14:46 52.09838 7.75714 31185 ft 419 kts 69°
2026-04-07 14:47 52.11605 7.84776 31180 ft 419 kts 69°
2026-04-07 14:47 52.13350 7.93768 31182 ft 418 kts 69°
2026-04-07 14:48 52.15096 8.02801 31178 ft 418 kts 69°
2026-04-07 14:48 52.16837 8.11851 31176 ft 418 kts 69°
2026-04-07 14:49 52.18568 8.20894 31169 ft 418 kts 69°
2026-04-07 14:49 52.19955 8.30126 31164 ft 422 kts 80°
2026-04-07 14:50 52.20490 8.39643 31178 ft 424 kts 83°
2026-04-07 14:50 52.20850 8.49254 31174 ft 424 kts 83°
2026-04-07 14:51 52.21166 8.58800 31182 ft 424 kts 83°
2026-04-07 14:51 52.21490 8.68435 31176 ft 426 kts 82°
2026-04-07 14:52 52.21817 8.78077 31176 ft 426 kts 82°
2026-04-07 14:52 52.22141 8.87736 31182 ft 426 kts 82°
2026-04-07 14:53 52.22455 8.97337 31182 ft 426 kts 82°
2026-04-07 14:53 52.22763 9.06990 31183 ft 426 kts 82°
2026-04-07 14:54 52.23062 9.16655 31183 ft 426 kts 82°
2026-04-07 14:54 52.23354 9.26324 31183 ft 427 kts 82°
2026-04-07 14:55 52.23643 9.35994 31174 ft 427 kts 82°
2026-04-07 14:55 52.23928 9.45668 31172 ft 427 kts 82°
2026-04-07 14:56 52.24205 9.55345 31172 ft 427 kts 82°
2026-04-07 14:56 52.24472 9.64971 31170 ft 427 kts 82°
2026-04-07 14:57 52.24732 9.74650 31169 ft 427 kts 83°
2026-04-07 14:57 52.24974 9.84337 31169 ft 428 kts 85°
2026-04-07 14:58 52.24357 9.94063 31173 ft 434 kts 95°
2026-04-07 14:58 52.23207 10.03786 31162 ft 437 kts 97°
2026-04-07 14:59 52.21947 10.13490 31153 ft 437 kts 97°
2026-04-07 14:59 52.20679 10.23190 31161 ft 437 kts 97°
2026-04-07 15:00 52.19426 10.32831 31151 ft 437 kts 97°
2026-04-07 15:00 52.18167 10.42524 31161 ft 438 kts 97°
2026-04-07 15:01 52.17104 10.50662 31156 ft 438 kts 97°
2026-04-07 15:01 52.15838 10.60290 31154 ft 438 kts 97°
2026-04-07 15:02 52.14555 10.69983 31154 ft 438 kts 97°
2026-04-07 15:02 52.13263 10.79673 31155 ft 438 kts 97°
2026-04-07 15:03 52.11964 10.89372 31167 ft 438 kts 97°
2026-04-07 15:03 52.10660 10.99058 31152 ft 438 kts 97°
2026-04-07 15:04 52.09355 11.08699 31151 ft 438 kts 97°
2026-04-07 15:04 52.08037 11.18368 31150 ft 438 kts 97°
2026-04-07 15:05 52.06708 11.28049 31147 ft 438 kts 97°
2026-04-07 15:05 52.05382 11.37648 31159 ft 438 kts 97°
2026-04-07 15:06 52.04037 11.47316 31148 ft 438 kts 97°
2026-04-07 15:06 52.02686 11.56971 31152 ft 438 kts 97°
2026-04-07 15:07 52.01325 11.66632 31151 ft 438 kts 97°
2026-04-07 15:07 52.00175 11.76292 31148 ft 432 kts 88°
2026-04-07 15:08 52.00528 11.85837 31151 ft 417 kts 72°
2026-04-07 15:08 52.01753 11.94937 31141 ft 414 kts 69°
2026-04-07 15:09 52.03140 12.04005 31142 ft 414 kts 68°
2026-04-07 15:09 52.04526 12.13079 31142 ft 414 kts 69°
2026-04-07 15:10 52.05883 12.22192 31143 ft 414 kts 69°
2026-04-07 15:10 52.07218 12.31304 31141 ft 414 kts 69°
2026-04-07 15:11 52.08545 12.40433 31136 ft 414 kts 69°
2026-04-07 15:11 52.09861 12.49536 31133 ft 413 kts 69°
2026-04-07 15:12 52.11163 12.58592 31129 ft 413 kts 69°
2026-04-07 15:12 52.12465 12.67700 31131 ft 413 kts 69°
2026-04-07 15:13 52.13760 12.76813 31130 ft 413 kts 69°
2026-04-07 15:13 52.15048 12.85937 31130 ft 413 kts 69°
2026-04-07 15:14 52.16331 12.95078 31129 ft 413 kts 69°
2026-04-07 15:14 52.17604 13.04215 31125 ft 413 kts 69°
2026-04-07 15:15 52.18863 13.13311 31124 ft 414 kts 69°
2026-04-07 15:15 52.20126 13.22493 31124 ft 414 kts 69°
2026-04-07 15:16 52.21380 13.31663 31126 ft 414 kts 69°
2026-04-07 15:16 52.22626 13.40830 31126 ft 414 kts 69°
2026-04-07 15:17 52.23857 13.49942 31143 ft 414 kts 69°
2026-04-07 15:17 52.25091 13.59142 31128 ft 414 kts 69°
2026-04-07 15:18 52.26315 13.68326 31125 ft 414 kts 69°
2026-04-07 15:18 52.27537 13.77526 31123 ft 414 kts 69°
2026-04-07 15:19 52.28746 13.86662 31120 ft 414 kts 69°
2026-04-07 15:19 52.29958 13.95865 31119 ft 414 kts 69°
2026-04-07 15:20 52.31160 14.05054 31111 ft 414 kts 69°
2026-04-07 15:20 52.32355 14.14271 31112 ft 414 kts 69°
2026-04-07 15:21 52.33537 14.23493 31110 ft 414 kts 69°
2026-04-07 15:21 52.34703 14.32657 31110 ft 414 kts 69°
2026-04-07 15:22 52.35871 14.41894 31108 ft 414 kts 69°
2026-04-07 15:22 52.37032 14.51130 31108 ft 413 kts 69°
2026-04-07 15:23 52.37530 14.60623 31108 ft 428 kts 85°
2026-04-07 15:23 52.36763 14.70392 31106 ft 435 kts 91°
2026-04-07 15:24 52.35701 14.80160 31105 ft 436 kts 93°
2026-04-07 15:24 52.34599 14.89841 31105 ft 436 kts 93°
2026-04-07 15:25 52.33504 14.99593 31104 ft 436 kts 92°
2026-04-07 15:25 52.32419 15.09349 31101 ft 436 kts 92°
2026-04-07 15:26 52.31333 15.19100 31100 ft 436 kts 92°
2026-04-07 15:26 52.30236 15.28861 31102 ft 436 kts 92°
2026-04-07 15:27 52.29131 15.38606 31096 ft 436 kts 92°
2026-04-07 15:27 52.28018 15.48353 31100 ft 436 kts 92°
2026-04-07 15:28 52.26896 15.58114 31097 ft 438 kts 92°
2026-04-07 15:28 52.25763 15.67891 31099 ft 439 kts 92°
2026-04-07 15:29 52.24620 15.77681 31100 ft 439 kts 92°
2026-04-07 15:29 52.23470 15.87458 31101 ft 439 kts 92°
2026-04-07 15:30 52.22316 15.97170 31080 ft 439 kts 92°
2026-04-07 15:30 52.21140 16.06980 31075 ft 441 kts 92°
2026-04-07 15:31 52.19952 16.16807 31075 ft 442 kts 92°
2026-04-07 15:31 52.18757 16.26629 31069 ft 442 kts 92°
2026-04-07 15:32 52.17564 16.36377 31059 ft 442 kts 92°
2026-04-07 15:32 52.16346 16.46259 31113 ft 442 kts 92°
2026-04-07 15:33 52.15134 16.56032 31049 ft 444 kts 92°
2026-04-07 15:33 52.13902 16.65893 31056 ft 444 kts 91°
2026-04-07 15:34 52.13499 16.75674 31045 ft 421 kts 73°
2026-04-07 15:34 52.14220 16.85026 31046 ft 416 kts 70°
2026-04-07 15:35 52.15155 16.94295 31041 ft 415 kts 69°
2026-04-07 15:35 52.16114 17.03556 31038 ft 415 kts 68°
2026-04-07 15:36 52.17050 17.12864 31039 ft 416 kts 69°
2026-04-07 15:36 52.17962 17.22193 31026 ft 416 kts 69°
2026-04-07 15:37 52.18857 17.31457 31023 ft 417 kts 69°
2026-04-07 15:37 52.19751 17.40795 31022 ft 417 kts 69°
2026-04-07 15:38 52.20635 17.50120 31022 ft 417 kts 69°
2026-04-07 15:38 52.21512 17.59482 31026 ft 417 kts 68°
2026-04-07 15:39 52.22381 17.68854 31014 ft 418 kts 68°
2026-04-07 15:39 52.23242 17.78230 31014 ft 418 kts 68°
2026-04-07 15:40 52.24094 17.87561 31006 ft 418 kts 69°
2026-04-07 15:40 52.24946 17.96952 31003 ft 418 kts 69°
2026-04-07 15:41 52.25790 18.06335 31057 ft 418 kts 69°
2026-04-07 15:41 52.26628 18.15748 30995 ft 419 kts 68°
2026-04-07 15:42 52.27462 18.25196 30999 ft 419 kts 68°
2026-04-07 15:42 52.28689 18.39281 30987 ft 419 kts 68°
2026-04-07 15:43 52.29502 18.48727 30992 ft 419 kts 67°
2026-04-07 15:43 52.30303 18.58141 30985 ft 418 kts 67°
2026-04-07 15:44 52.31102 18.67563 30990 ft 420 kts 66°
2026-04-07 15:44 52.31900 18.77057 30977 ft 422 kts 66°
2026-04-07 15:45 52.32686 18.86564 30916 ft 419 kts 66°
2026-04-07 15:45 52.32934 18.89680 30627 ft 414 kts 66°
2026-04-07 15:45 52.33419 18.95905 29548 ft 421 kts 68°
2026-04-07 15:46 52.33721 19.00681 28754 ft 424 kts 69°
2026-04-07 15:46 52.33989 19.05522 27775 ft 431 kts 69°
2026-04-07 15:46 52.34232 19.10396 27244 ft 427 kts 70°
2026-04-07 15:46 52.34380 19.13645 27057 ft 419 kts 70°
2026-04-07 15:47 52.34592 19.18364 26901 ft 414 kts 69°
2026-04-07 15:47 52.34812 19.22984 26651 ft 411 kts 68°
2026-04-07 15:47 52.35044 19.27639 26397 ft 409 kts 68°
2026-04-07 15:47 52.35276 19.32273 25977 ft 406 kts 68°
2026-04-07 15:48 52.35513 19.36913 25070 ft 413 kts 68°
2026-04-07 15:48 52.35752 19.41615 24289 ft 417 kts 68°
2026-04-07 15:48 52.35982 19.46348 23669 ft 416 kts 68°
2026-04-07 15:48 52.36202 19.51039 23070 ft 411 kts 69°
2026-04-07 15:49 52.36417 19.55677 22541 ft 405 kts 69°
2026-04-07 15:49 52.36626 19.60213 22056 ft 397 kts 69°
2026-04-07 15:49 52.36836 19.64701 21441 ft 393 kts 70°
2026-04-07 15:49 52.37041 19.69087 20878 ft 388 kts 70°
2026-04-07 15:50 52.37244 19.73462 20360 ft 383 kts 71°
2026-04-07 15:50 52.37329 19.75099 20134 ft 378 kts 69°
2026-04-07 15:51 52.37871 19.79154 19506 ft 350 kts 58°
2026-04-07 15:51 52.38671 19.82788 18347 ft 329 kts 56°
2026-04-07 15:51 52.39498 19.86142 17739 ft 310 kts 55°
2026-04-07 15:51 52.40321 19.89405 17465 ft 309 kts 55°
2026-04-07 15:52 52.41142 19.92662 17205 ft 313 kts 55°
2026-04-07 15:52 52.41967 19.95957 16958 ft 314 kts 56°
2026-04-07 15:52 52.42778 19.99261 16687 ft 311 kts 56°
2026-04-07 15:52 52.43581 20.02549 16428 ft 309 kts 56°
2026-04-07 15:53 52.44371 20.05784 16160 ft 307 kts 57°
2026-04-07 15:53 52.45170 20.09069 15890 ft 306 kts 57°
2026-04-07 15:53 52.45956 20.12306 15641 ft 304 kts 57°
2026-04-07 15:53 52.46736 20.15520 15384 ft 303 kts 57°
2026-04-07 15:54 52.47503 20.18689 15135 ft 302 kts 57°
2026-04-07 15:54 52.48280 20.21902 14889 ft 301 kts 58°
2026-04-07 15:54 52.49048 20.25084 14635 ft 299 kts 58°
2026-04-07 15:54 52.49808 20.28244 14460 ft 293 kts 58°
2026-04-07 15:55 52.50464 20.31377 14317 ft 294 kts 66°
2026-04-07 15:55 52.50599 20.34792 14096 ft 311 kts 89°
2026-04-07 15:55 52.49907 20.38252 13847 ft 326 kts 108°
2026-04-07 15:55 52.48820 20.41532 13569 ft 328 kts 113°
2026-04-07 15:56 52.47666 20.44765 13292 ft 327 kts 113°
2026-04-07 15:56 52.46531 20.47936 13018 ft 325 kts 113°
2026-04-07 15:56 52.45397 20.51126 12748 ft 323 kts 113°
2026-04-07 15:56 52.44269 20.54321 12450 ft 322 kts 113°
2026-04-07 15:57 52.43153 20.57494 12171 ft 322 kts 113°
2026-04-07 15:57 52.42035 20.60678 11906 ft 321 kts 113°
2026-04-07 15:57 52.40928 20.63828 11681 ft 319 kts 113°
2026-04-07 15:57 52.39823 20.66971 11412 ft 317 kts 113°
2026-04-07 15:58 52.38726 20.70088 11149 ft 315 kts 113°
2026-04-07 15:58 52.37634 20.73185 10891 ft 313 kts 114°
2026-04-07 15:58 52.36546 20.76272 10666 ft 312 kts 114°
2026-04-07 15:58 52.35464 20.79335 10409 ft 310 kts 114°
2026-04-07 15:59 52.34389 20.82377 10150 ft 309 kts 114°
2026-04-07 15:59 52.33314 20.85414 9885 ft 307 kts 114°
2026-04-07 15:59 52.32247 20.88424 9581 ft 306 kts 114°
2026-04-07 15:59 52.31183 20.91426 9315 ft 305 kts 114°
2026-04-07 16:00 52.30120 20.94417 9045 ft 304 kts 114°
2026-04-07 16:00 52.29074 20.97360 8774 ft 303 kts 114°
2026-04-07 16:00 52.28011 21.00330 8504 ft 302 kts 116°
2026-04-07 16:00 52.26662 21.03003 8231 ft 309 kts 137°
2026-04-07 16:01 52.24852 21.04921 7973 ft 312 kts 148°
2026-04-07 16:01 52.22937 21.06589 7715 ft 311 kts 150°
2026-04-07 16:01 52.21018 21.08209 7479 ft 308 kts 150°
2026-04-07 16:01 52.19148 21.09791 7331 ft 297 kts 150°
2026-04-07 16:02 52.17346 21.11323 7195 ft 287 kts 150°
2026-04-07 16:02 52.15625 21.12796 7072 ft 279 kts 150°
2026-04-07 16:02 52.13916 21.14280 6797 ft 279 kts 150°
2026-04-07 16:02 52.12206 21.15774 6526 ft 278 kts 150°
2026-04-07 16:03 52.10510 21.17258 6267 ft 276 kts 150°
2026-04-07 16:03 52.08826 21.18730 6040 ft 273 kts 150°
2026-04-07 16:03 52.07148 21.20197 5814 ft 272 kts 150°
2026-04-07 16:03 52.05480 21.21653 5571 ft 272 kts 151°
2026-04-07 16:04 52.03831 21.23091 5359 ft 271 kts 151°
2026-04-07 16:04 52.02166 21.24543 5113 ft 271 kts 151°
2026-04-07 16:04 52.00508 21.25982 4893 ft 269 kts 151°
2026-04-07 16:04 51.98862 21.27402 4847 ft 268 kts 152°
2026-04-07 16:05 51.97207 21.28827 4807 ft 269 kts 152°
2026-04-07 16:05 51.95553 21.30250 4724 ft 269 kts 152°
2026-04-07 16:05 51.93922 21.31653 4651 ft 268 kts 152°
2026-04-07 16:05 51.92269 21.33060 4549 ft 268 kts 154°
2026-04-07 16:06 51.90493 21.33861 4494 ft 260 kts 183°
2026-04-07 16:06 51.88870 21.33207 4406 ft 231 kts 220°
2026-04-07 16:06 51.87768 21.31518 4377 ft 211 kts 246°
2026-04-07 16:06 51.87025 21.29504 4337 ft 207 kts 252°
2026-04-07 16:07 51.86436 21.27409 4268 ft 199 kts 264°
2026-04-07 16:07 51.86303 21.25280 4222 ft 185 kts 286°
2026-04-07 16:07 51.86697 21.23394 4172 ft 176 kts 307°
2026-04-07 16:07 51.87524 21.21963 4130 ft 172 kts 326°
2026-04-07 16:08 51.88549 21.20960 4075 ft 172 kts 332°
2026-04-07 16:08 51.89592 21.20074 4024 ft 172 kts 333°
2026-04-07 16:08 51.90658 21.19181 3991 ft 172 kts 333°
2026-04-07 16:08 51.91720 21.18284 3913 ft 172 kts 332°
2026-04-07 16:09 51.92776 21.17383 3736 ft 171 kts 332°
2026-04-07 16:09 51.93825 21.16484 3608 ft 171 kts 332°
2026-04-07 16:09 51.94870 21.15584 3474 ft 170 kts 332°
2026-04-07 16:09 51.95911 21.14685 3346 ft 169 kts 332°
2026-04-07 16:10 51.96941 21.13795 3208 ft 170 kts 332°
2026-04-07 16:10 51.97992 21.12886 3073 ft 169 kts 332°
2026-04-07 16:10 51.99024 21.11992 2987 ft 168 kts 332°
2026-04-07 16:10 52.00053 21.11100 2980 ft 168 kts 332°
2026-04-07 16:11 52.01083 21.10207 2979 ft 168 kts 332°
2026-04-07 16:11 52.02111 21.09314 2981 ft 168 kts 332°
2026-04-07 16:11 52.03128 21.08430 2989 ft 168 kts 332°
2026-04-07 16:11 52.04153 21.07540 2984 ft 165 kts 332°
2026-04-07 16:12 52.05151 21.06671 2815 ft 160 kts 332°
2026-04-07 16:12 52.06126 21.05823 2582 ft 158 kts 332°
2026-04-07 16:12 52.07094 21.04980 2327 ft 159 kts 333°
2026-04-07 16:12 52.08068 21.04132 2128 ft 159 kts 333°
2026-04-07 16:13 52.09029 21.03294 1875 ft 151 kts 333°
2026-04-07 16:13 52.09894 21.02540 1695 ft 136 kts 332°
2026-04-07 16:13 52.10705 21.01833 1506 ft 129 kts 332°
2026-04-07 16:13 52.11461 21.01173 1332 ft 120 kts 332°
2026-04-07 16:14 52.12189 21.00538 1144 ft 117 kts 332°
2026-04-07 16:14 52.12918 20.99903 974 ft 119 kts 332°
2026-04-07 16:14 52.13645 20.99268 814 ft 117 kts 331°
2026-04-07 16:14 52.14355 20.98645 652 ft 116 kts 331°
2026-04-07 16:15 52.15074 20.98015 479 ft 119 kts 332°
2026-04-07 16:15 52.15796 20.97395 378 ft 115 kts 331°
2026-04-07 16:15 52.16412 20.96849 363 ft 76 kts 330°
2026-04-07 16:15 52.16717 20.96585 367 ft 33 kts 333°
2026-04-07 16:16 52.16880 20.96518 366 ft 19 kts 352°
2026-04-07 16:16 52.16989 20.96515 361 ft 13 kts
2026-04-07 16:16 52.17066 20.96534 364 ft 11 kts 26°
2026-04-07 16:16 52.17129 20.96607 367 ft 12 kts 16°
2026-04-07 16:17 52.17176 20.96583 362 ft 5 kts 332°
2026-04-07 16:17 52.17206 20.96558 366 ft 6 kts 332°
2026-04-07 16:17 52.17275 20.96498 365 ft 14 kts 332°
2026-04-07 16:17 52.17376 20.96414 363 ft 16 kts 336°
2026-04-07 16:18 52.17470 20.96515 366 ft 23 kts 62°
2026-04-07 16:18 52.17554 20.96702 366 ft 20 kts 63°
2026-04-07 16:18 52.17626 20.96889 364 ft 20 kts 54°
2026-04-07 16:18 52.17703 20.97085 363 ft 21 kts 57°
2026-04-07 16:19 52.17683 20.97250 362 ft 10 kts 187°
2026-04-07 16:19 52.17668 20.97188 367 ft 5 kts 261°
2026-04-07 16:19 52.17667 20.97172 369 ft 0 kts 262°